Snoqualmie Pass, Washington
Current Conditions -  °F | °C
As of 6:53 AM on Wednesday 26 Nov 2014 (Local Time) from KRNT Reporting Station
Overcast Overcast  
Wind Chill: 57°   Ceiling: 3000
Heat Index: 57°   Visibility: 10mi
Dew Point: 52°   Wind: 9mph
Humidity: 83%   Direction: 160°SSE
Pressure: 30.13"   Gusts: NA
Location:  47.43°N, 121.4°W
Report Text: KRNT 261453Z 16008KT 10SM SCT022 BKN030 OVC038 14/11 A3013 RMK AO2 SLP206 T01390111 56010
Loading
Personal Weather Stations






























Interactive Weather Map New forecast layout! Learn more

10-Day Weather Forecast

Advertisements
Track Severe Weather on mobile